Terminal Aerodrome Forecast
Issued by NWS San Angelo, TX

Home | Current Version | Previous Version | Text Only | Print | Product List | Glossary On
Versions: 1 2 3 4 5 6 7 8 9 10 11 12 13 14 15
000
FTUS44 KSJT 291100
TAFABI
TAF
KABI 291120Z 2912/3012 21014G20KT P6SM SKC
     FM292100 33014G22KT P6SM SKC
     FM292300 36017G24KT P6SM SKC
     FM300600 36009KT P6SM SKC=

USA.gov is the U.S. government's official web portal to all federal, state and local government web resources and services.